sensor_id;sensor_type;location;lat;lon;timestamp;P1;durP1;ratioP1;P2;durP2;ratioP2
22184;SDS011;11258;52.516;13.318;2022-11-15T00:00:51;43.57;;;28.13;;
22184;SDS011;11258;52.516;13.318;2022-11-15T00:03:18;48.97;;;29.33;;
22184;SDS011;11258;52.516;13.318;2022-11-15T00:05:45;49.10;;;30.50;;
22184;SDS011;11258;52.516;13.318;2022-11-15T00:08:10;46.83;;;28.80;;
22184;SDS011;11258;52.516;13.318;2022-11-15T00:10:36;45.47;;;29.27;;
22184;SDS011;11258;52.516;13.318;2022-11-15T00:13:06;46.33;;;29.20;;
22184;SDS011;11258;52.516;13.318;2022-11-15T00:15:36;50.67;;;29.73;;
22184;SDS011;11258;52.516;13.318;2022-11-15T00:18:03;46.70;;;28.53;;
22184;SDS011;11258;52.516;13.318;2022-11-15T00:20:29;54.40;;;31.77;;
22184;SDS011;11258;52.516;13.318;2022-11-15T00:22:56;44.50;;;28.10;;
22184;SDS011;11258;52.516;13.318;2022-11-15T00:25:21;49.73;;;30.60;;
22184;SDS011;11258;52.516;13.318;2022-11-15T00:27:47;46.13;;;28.30;;
22184;SDS011;11258;52.516;13.318;2022-11-15T00:30:12;50.67;;;29.47;;
22184;SDS011;11258;52.516;13.318;2022-11-15T00:32:38;48.53;;;29.67;;
22184;SDS011;11258;52.516;13.318;2022-11-15T00:35:04;50.17;;;29.63;;
22184;SDS011;11258;52.516;13.318;2022-11-15T00:37:30;47.93;;;30.60;;
22184;SDS011;11258;52.516;13.318;2022-11-15T00:39:55;43.83;;;29.40;;
22184;SDS011;11258;52.516;13.318;2022-11-15T00:42:21;50.43;;;29.97;;
22184;SDS011;11258;52.516;13.318;2022-11-15T00:44:46;51.87;;;31.03;;
22184;SDS011;11258;52.516;13.318;2022-11-15T00:47:12;48.63;;;29.30;;
22184;SDS011;11258;52.516;13.318;2022-11-15T00:49:38;49.67;;;29.90;;
22184;SDS011;11258;52.516;13.318;2022-11-15T00:52:03;48.37;;;30.73;;
22184;SDS011;11258;52.516;13.318;2022-11-15T00:54:29;50.87;;;31.10;;
22184;SDS011;11258;52.516;13.318;2022-11-15T00:56:54;49.17;;;28.70;;
22184;SDS011;11258;52.516;13.318;2022-11-15T00:59:20;47.73;;;29.67;;
22184;SDS011;11258;52.516;13.318;2022-11-15T01:01:45;48.57;;;29.17;;
22184;SDS011;11258;52.516;13.318;2022-11-15T01:04:11;50.63;;;30.87;;
22184;SDS011;11258;52.516;13.318;2022-11-15T01:06:37;51.73;;;30.20;;
22184;SDS011;11258;52.516;13.318;2022-11-15T01:09:02;52.07;;;29.87;;
22184;SDS011;11258;52.516;13.318;2022-11-15T01:11:28;45.13;;;28.33;;
22184;SDS011;11258;52.516;13.318;2022-11-15T01:13:54;50.73;;;30.93;;
22184;SDS011;11258;52.516;13.318;2022-11-15T01:16:20;48.13;;;30.17;;
22184;SDS011;11258;52.516;13.318;2022-11-15T01:18:45;51.97;;;30.47;;
22184;SDS011;11258;52.516;13.318;2022-11-15T01:21:15;48.43;;;29.87;;
22184;SDS011;11258;52.516;13.318;2022-11-15T01:23:42;48.63;;;30.30;;
22184;SDS011;11258;52.516;13.318;2022-11-15T01:26:09;50.23;;;31.47;;
22184;SDS011;11258;52.516;13.318;2022-11-15T01:28:37;52.33;;;30.37;;
22184;SDS011;11258;52.516;13.318;2022-11-15T01:31:06;50.70;;;31.17;;
22184;SDS011;11258;52.516;13.318;2022-11-15T01:33:35;47.13;;;30.80;;
22184;SDS011;11258;52.516;13.318;2022-11-15T01:36:07;49.73;;;30.27;;
22184;SDS011;11258;52.516;13.318;2022-11-15T01:38:37;49.33;;;29.83;;
22184;SDS011;11258;52.516;13.318;2022-11-15T01:41:03;54.20;;;31.53;;
22184;SDS011;11258;52.516;13.318;2022-11-15T01:43:31;51.17;;;31.03;;
22184;SDS011;11258;52.516;13.318;2022-11-15T01:48:32;49.60;;;30.77;;
22184;SDS011;11258;52.516;13.318;2022-11-15T01:51:02;52.27;;;30.90;;
22184;SDS011;11258;52.516;13.318;2022-11-15T01:53:33;48.77;;;30.83;;
22184;SDS011;11258;52.516;13.318;2022-11-15T01:56:01;47.10;;;30.50;;
22184;SDS011;11258;52.516;13.318;2022-11-15T01:58:29;48.33;;;29.13;;
22184;SDS011;11258;52.516;13.318;2022-11-15T02:00:55;46.17;;;30.20;;
22184;SDS011;11258;52.516;13.318;2022-11-15T02:03:21;49.10;;;29.83;;
22184;SDS011;11258;52.516;13.318;2022-11-15T02:05:50;46.33;;;30.57;;
22184;SDS011;11258;52.516;13.318;2022-11-15T02:08:16;52.97;;;32.30;;
22184;SDS011;11258;52.516;13.318;2022-11-15T02:10:45;50.13;;;30.23;;
22184;SDS011;11258;52.516;13.318;2022-11-15T02:13:13;50.80;;;31.10;;
22184;SDS011;11258;52.516;13.318;2022-11-15T02:15:45;49.67;;;30.00;;
22184;SDS011;11258;52.516;13.318;2022-11-15T02:18:26;53.10;;;32.03;;
22184;SDS011;11258;52.516;13.318;2022-11-15T02:37:16;49.83;;;30.50;;
22184;SDS011;11258;52.516;13.318;2022-11-15T02:42:40;50.63;;;31.70;;
22184;SDS011;11258;52.516;13.318;2022-11-15T02:45:29;52.43;;;31.37;;
22184;SDS011;11258;52.516;13.318;2022-11-15T02:47:58;46.57;;;28.97;;
22184;SDS011;11258;52.516;13.318;2022-11-15T02:50:28;51.93;;;32.00;;
22184;SDS011;11258;52.516;13.318;2022-11-15T02:52:56;51.70;;;30.33;;
22184;SDS011;11258;52.516;13.318;2022-11-15T02:55:29;46.90;;;29.57;;
22184;SDS011;11258;52.516;13.318;2022-11-15T02:58:39;51.73;;;30.63;;
22184;SDS011;11258;52.516;13.318;2022-11-15T03:04:10;48.80;;;28.93;;
22184;SDS011;11258;52.516;13.318;2022-11-15T03:06:40;46.57;;;29.53;;
22184;SDS011;11258;52.516;13.318;2022-11-15T03:09:21;48.37;;;28.87;;
22184;SDS011;11258;52.516;13.318;2022-11-15T03:11:56;51.10;;;29.40;;
22184;SDS011;11258;52.516;13.318;2022-11-15T03:17:19;47.43;;;28.07;;
22184;SDS011;11258;52.516;13.318;2022-11-15T03:19:59;52.80;;;31.03;;
22184;SDS011;11258;52.516;13.318;2022-11-15T03:22:29;50.20;;;30.23;;
22184;SDS011;11258;52.516;13.318;2022-11-15T03:25:00;47.77;;;28.93;;
22184;SDS011;11258;52.516;13.318;2022-11-15T03:27:31;48.10;;;30.73;;
22184;SDS011;11258;52.516;13.318;2022-11-15T03:30:03;49.10;;;30.33;;
22184;SDS011;11258;52.516;13.318;2022-11-15T03:32:31;49.20;;;28.60;;
22184;SDS011;11258;52.516;13.318;2022-11-15T03:35:06;52.27;;;30.43;;
22184;SDS011;11258;52.516;13.318;2022-11-15T03:40:14;49.40;;;29.00;;
22184;SDS011;11258;52.516;13.318;2022-11-15T03:42:46;48.70;;;29.87;;
22184;SDS011;11258;52.516;13.318;2022-11-15T03:45:22;47.53;;;29.07;;
22184;SDS011;11258;52.516;13.318;2022-11-15T03:47:58;44.63;;;28.43;;
22184;SDS011;11258;52.516;13.318;2022-11-15T03:50:27;48.17;;;29.53;;
22184;SDS011;11258;52.516;13.318;2022-11-15T03:52:54;48.70;;;29.07;;
22184;SDS011;11258;52.516;13.318;2022-11-15T03:55:21;47.03;;;29.37;;
22184;SDS011;11258;52.516;13.318;2022-11-15T03:57:48;52.60;;;31.00;;
22184;SDS011;11258;52.516;13.318;2022-11-15T04:00:16;51.93;;;29.77;;
22184;SDS011;11258;52.516;13.318;2022-11-15T04:02:41;47.27;;;30.33;;
22184;SDS011;11258;52.516;13.318;2022-11-15T04:05:07;46.60;;;28.53;;
22184;SDS011;11258;52.516;13.318;2022-11-15T04:07:33;49.47;;;28.77;;
22184;SDS011;11258;52.516;13.318;2022-11-15T04:09:58;49.80;;;28.70;;
22184;SDS011;11258;52.516;13.318;2022-11-15T04:12:27;50.77;;;30.97;;
22184;SDS011;11258;52.516;13.318;2022-11-15T04:15:08;51.30;;;30.67;;
22184;SDS011;11258;52.516;13.318;2022-11-15T04:17:52;47.50;;;28.70;;
22184;SDS011;11258;52.516;13.318;2022-11-15T04:20:29;45.93;;;28.17;;
22184;SDS011;11258;52.516;13.318;2022-11-15T04:23:15;46.43;;;28.77;;
22184;SDS011;11258;52.516;13.318;2022-11-15T04:26:03;47.03;;;28.77;;
22184;SDS011;11258;52.516;13.318;2022-11-15T04:28:32;47.03;;;28.37;;
22184;SDS011;11258;52.516;13.318;2022-11-15T04:30:58;51.70;;;29.00;;
22184;SDS011;11258;52.516;13.318;2022-11-15T04:33:24;48.00;;;28.37;;
22184;SDS011;11258;52.516;13.318;2022-11-15T04:35:50;46.27;;;28.07;;
22184;SDS011;11258;52.516;13.318;2022-11-15T04:38:34;52.10;;;29.07;;
22184;SDS011;11258;52.516;13.318;2022-11-15T04:41:00;49.83;;;28.70;;
22184;SDS011;11258;52.516;13.318;2022-11-15T04:43:26;46.13;;;28.23;;
22184;SDS011;11258;52.516;13.318;2022-11-15T04:45:52;46.43;;;28.97;;
22184;SDS011;11258;52.516;13.318;2022-11-15T04:48:18;49.63;;;29.70;;
22184;SDS011;11258;52.516;13.318;2022-11-15T04:50:43;43.33;;;26.50;;
22184;SDS011;11258;52.516;13.318;2022-11-15T04:53:09;48.10;;;28.97;;
22184;SDS011;11258;52.516;13.318;2022-11-15T04:55:34;46.17;;;28.20;;
22184;SDS011;11258;52.516;13.318;2022-11-15T04:58:01;49.50;;;28.13;;
22184;SDS011;11258;52.516;13.318;2022-11-15T05:00:27;42.83;;;27.60;;
22184;SDS011;11258;52.516;13.318;2022-11-15T05:02:53;46.30;;;27.37;;
22184;SDS011;11258;52.516;13.318;2022-11-15T05:05:38;46.27;;;27.37;;
22184;SDS011;11258;52.516;13.318;2022-11-15T05:08:04;45.50;;;27.00;;
22184;SDS011;11258;52.516;13.318;2022-11-15T05:10:30;49.13;;;27.47;;
22184;SDS011;11258;52.516;13.318;2022-11-15T05:12:56;44.37;;;27.60;;
22184;SDS011;11258;52.516;13.318;2022-11-15T05:15:21;46.53;;;28.57;;
22184;SDS011;11258;52.516;13.318;2022-11-15T05:17:47;46.73;;;27.17;;
22184;SDS011;11258;52.516;13.318;2022-11-15T05:20:13;43.83;;;25.93;;
22184;SDS011;11258;52.516;13.318;2022-11-15T05:22:38;41.13;;;26.37;;
22184;SDS011;11258;52.516;13.318;2022-11-15T05:25:04;44.73;;;26.73;;
22184;SDS011;11258;52.516;13.318;2022-11-15T05:27:31;42.97;;;25.70;;
22184;SDS011;11258;52.516;13.318;2022-11-15T05:29:57;39.47;;;26.50;;
22184;SDS011;11258;52.516;13.318;2022-11-15T05:32:22;43.97;;;27.07;;
22184;SDS011;11258;52.516;13.318;2022-11-15T05:34:49;42.50;;;26.77;;
22184;SDS011;11258;52.516;13.318;2022-11-15T05:37:15;45.43;;;27.13;;
22184;SDS011;11258;52.516;13.318;2022-11-15T05:39:41;41.77;;;24.97;;
22184;SDS011;11258;52.516;13.318;2022-11-15T05:42:11;45.27;;;27.93;;
22184;SDS011;11258;52.516;13.318;2022-11-15T05:44:39;43.93;;;25.83;;
22184;SDS011;11258;52.516;13.318;2022-11-15T05:47:10;42.87;;;25.93;;
22184;SDS011;11258;52.516;13.318;2022-11-15T05:49:38;41.17;;;26.00;;
22184;SDS011;11258;52.516;13.318;2022-11-15T05:52:07;44.10;;;27.50;;
22184;SDS011;11258;52.516;13.318;2022-11-15T05:54:36;42.97;;;25.77;;
22184;SDS011;11258;52.516;13.318;2022-11-15T05:57:03;41.90;;;26.33;;
22184;SDS011;11258;52.516;13.318;2022-11-15T05:59:30;46.43;;;27.80;;
22184;SDS011;11258;52.516;13.318;2022-11-15T06:01:56;41.67;;;26.27;;
22184;SDS011;11258;52.516;13.318;2022-11-15T06:04:22;42.70;;;26.70;;
22184;SDS011;11258;52.516;13.318;2022-11-15T06:06:48;46.07;;;26.33;;
22184;SDS011;11258;52.516;13.318;2022-11-15T06:09:13;50.00;;;26.93;;
22184;SDS011;11258;52.516;13.318;2022-11-15T06:11:39;44.97;;;26.87;;
22184;SDS011;11258;52.516;13.318;2022-11-15T06:14:04;45.13;;;26.63;;
22184;SDS011;11258;52.516;13.318;2022-11-15T06:16:30;41.30;;;25.17;;
22184;SDS011;11258;52.516;13.318;2022-11-15T06:18:56;46.27;;;27.07;;
22184;SDS011;11258;52.516;13.318;2022-11-15T06:21:21;47.20;;;26.40;;
22184;SDS011;11258;52.516;13.318;2022-11-15T06:23:47;45.53;;;26.00;;
22184;SDS011;11258;52.516;13.318;2022-11-15T06:26:13;42.90;;;26.83;;
22184;SDS011;11258;52.516;13.318;2022-11-15T06:28:38;53.03;;;28.37;;
22184;SDS011;11258;52.516;13.318;2022-11-15T06:31:05;46.83;;;27.30;;
22184;SDS011;11258;52.516;13.318;2022-11-15T06:33:31;43.90;;;27.53;;
22184;SDS011;11258;52.516;13.318;2022-11-15T06:36:02;46.93;;;27.70;;
22184;SDS011;11258;52.516;13.318;2022-11-15T06:38:28;47.10;;;27.27;;
22184;SDS011;11258;52.516;13.318;2022-11-15T06:40:54;46.03;;;25.40;;
22184;SDS011;11258;52.516;13.318;2022-11-15T06:43:34;49.03;;;26.33;;
22184;SDS011;11258;52.516;13.318;2022-11-15T06:46:00;43.60;;;25.40;;
22184;SDS011;11258;52.516;13.318;2022-11-15T06:48:27;43.83;;;26.33;;
22184;SDS011;11258;52.516;13.318;2022-11-15T06:50:54;45.60;;;28.50;;
22184;SDS011;11258;52.516;13.318;2022-11-15T06:53:22;44.97;;;27.73;;
22184;SDS011;11258;52.516;13.318;2022-11-15T06:55:48;58.03;;;27.70;;
22184;SDS011;11258;52.516;13.318;2022-11-15T06:58:13;44.40;;;25.63;;
22184;SDS011;11258;52.516;13.318;2022-11-15T07:00:39;49.83;;;27.80;;
22184;SDS011;11258;52.516;13.318;2022-11-15T07:03:05;45.83;;;27.40;;
22184;SDS011;11258;52.516;13.318;2022-11-15T07:05:31;43.03;;;26.07;;
22184;SDS011;11258;52.516;13.318;2022-11-15T07:07:57;45.80;;;26.03;;
22184;SDS011;11258;52.516;13.318;2022-11-15T07:10:24;40.43;;;26.07;;
22184;SDS011;11258;52.516;13.318;2022-11-15T07:12:51;48.63;;;26.73;;
22184;SDS011;11258;52.516;13.318;2022-11-15T07:15:18;42.57;;;25.53;;
22184;SDS011;11258;52.516;13.318;2022-11-15T07:17:45;45.97;;;26.93;;
22184;SDS011;11258;52.516;13.318;2022-11-15T07:20:11;40.30;;;25.13;;
22184;SDS011;11258;52.516;13.318;2022-11-15T07:22:39;38.50;;;25.20;;
22184;SDS011;11258;52.516;13.318;2022-11-15T07:25:05;41.80;;;25.60;;
22184;SDS011;11258;52.516;13.318;2022-11-15T07:27:31;41.67;;;25.10;;
22184;SDS011;11258;52.516;13.318;2022-11-15T07:29:56;37.93;;;24.77;;
22184;SDS011;11258;52.516;13.318;2022-11-15T07:32:22;33.67;;;21.73;;
22184;SDS011;11258;52.516;13.318;2022-11-15T07:34:47;33.53;;;20.87;;
22184;SDS011;11258;52.516;13.318;2022-11-15T07:37:13;31.67;;;20.73;;
22184;SDS011;11258;52.516;13.318;2022-11-15T07:39:38;31.63;;;20.37;;
22184;SDS011;11258;52.516;13.318;2022-11-15T07:42:04;31.87;;;19.83;;
22184;SDS011;11258;52.516;13.318;2022-11-15T07:44:49;32.93;;;19.93;;
22184;SDS011;11258;52.516;13.318;2022-11-15T07:47:14;33.73;;;20.47;;
22184;SDS011;11258;52.516;13.318;2022-11-15T07:49:40;33.97;;;21.07;;
22184;SDS011;11258;52.516;13.318;2022-11-15T07:52:05;30.53;;;20.20;;
22184;SDS011;11258;52.516;13.318;2022-11-15T07:54:31;30.63;;;20.87;;
22184;SDS011;11258;52.516;13.318;2022-11-15T07:56:57;32.50;;;21.67;;
22184;SDS011;11258;52.516;13.318;2022-11-15T07:59:22;34.70;;;22.10;;
22184;SDS011;11258;52.516;13.318;2022-11-15T08:01:48;32.17;;;20.13;;
22184;SDS011;11258;52.516;13.318;2022-11-15T08:04:13;35.93;;;21.77;;
22184;SDS011;11258;52.516;13.318;2022-11-15T08:09:08;35.57;;;21.73;;
22184;SDS011;11258;52.516;13.318;2022-11-15T08:11:33;33.20;;;22.63;;
22184;SDS011;11258;52.516;13.318;2022-11-15T08:13:59;34.23;;;21.03;;
22184;SDS011;11258;52.516;13.318;2022-11-15T08:16:25;33.30;;;21.97;;
22184;SDS011;11258;52.516;13.318;2022-11-15T08:18:50;32.47;;;20.80;;
22184;SDS011;11258;52.516;13.318;2022-11-15T08:21:18;34.53;;;20.00;;
22184;SDS011;11258;52.516;13.318;2022-11-15T08:23:45;32.90;;;21.60;;
22184;SDS011;11258;52.516;13.318;2022-11-15T08:26:11;31.80;;;21.07;;
22184;SDS011;11258;52.516;13.318;2022-11-15T08:28:36;30.70;;;20.97;;
22184;SDS011;11258;52.516;13.318;2022-11-15T08:31:03;33.40;;;21.37;;
22184;SDS011;11258;52.516;13.318;2022-11-15T08:33:29;29.93;;;20.37;;
22184;SDS011;11258;52.516;13.318;2022-11-15T08:35:56;31.70;;;19.70;;
22184;SDS011;11258;52.516;13.318;2022-11-15T08:38:22;34.70;;;21.33;;
22184;SDS011;11258;52.516;13.318;2022-11-15T08:40:49;32.33;;;19.97;;
22184;SDS011;11258;52.516;13.318;2022-11-15T08:43:17;32.77;;;20.70;;
22184;SDS011;11258;52.516;13.318;2022-11-15T08:45:42;33.90;;;19.70;;
22184;SDS011;11258;52.516;13.318;2022-11-15T08:48:08;33.13;;;20.87;;
22184;SDS011;11258;52.516;13.318;2022-11-15T08:50:34;30.50;;;20.83;;
22184;SDS011;11258;52.516;13.318;2022-11-15T08:53:06;33.20;;;21.70;;
22184;SDS011;11258;52.516;13.318;2022-11-15T08:55:35;29.07;;;20.60;;
22184;SDS011;11258;52.516;13.318;2022-11-15T08:58:02;27.77;;;18.20;;
22184;SDS011;11258;52.516;13.318;2022-11-15T09:00:28;27.00;;;19.13;;
22184;SDS011;11258;52.516;13.318;2022-11-15T09:02:54;29.87;;;20.20;;
22184;SDS011;11258;52.516;13.318;2022-11-15T09:05:19;28.53;;;18.33;;
22184;SDS011;11258;52.516;13.318;2022-11-15T09:07:45;26.77;;;18.87;;
22184;SDS011;11258;52.516;13.318;2022-11-15T09:10:10;30.63;;;20.40;;
22184;SDS011;11258;52.516;13.318;2022-11-15T09:12:36;30.63;;;19.90;;
22184;SDS011;11258;52.516;13.318;2022-11-15T09:15:02;30.63;;;20.00;;
22184;SDS011;11258;52.516;13.318;2022-11-15T09:17:29;25.77;;;18.10;;
22184;SDS011;11258;52.516;13.318;2022-11-15T09:19:54;30.77;;;20.10;;
22184;SDS011;11258;52.516;13.318;2022-11-15T09:22:20;32.50;;;20.63;;
22184;SDS011;11258;52.516;13.318;2022-11-15T09:24:46;29.53;;;18.93;;
22184;SDS011;11258;52.516;13.318;2022-11-15T09:27:11;27.87;;;17.67;;
22184;SDS011;11258;52.516;13.318;2022-11-15T09:29:38;29.17;;;19.00;;
22184;SDS011;11258;52.516;13.318;2022-11-15T09:32:04;26.20;;;17.70;;
22184;SDS011;11258;52.516;13.318;2022-11-15T09:34:30;31.03;;;17.63;;
22184;SDS011;11258;52.516;13.318;2022-11-15T09:36:55;29.87;;;18.67;;
22184;SDS011;11258;52.516;13.318;2022-11-15T09:39:21;30.57;;;19.40;;
22184;SDS011;11258;52.516;13.318;2022-11-15T09:41:49;25.90;;;16.23;;
22184;SDS011;11258;52.516;13.318;2022-11-15T09:47:10;25.57;;;17.47;;
22184;SDS011;11258;52.516;13.318;2022-11-15T09:49:57;29.27;;;18.40;;
22184;SDS011;11258;52.516;13.318;2022-11-15T09:52:24;25.43;;;16.30;;
22184;SDS011;11258;52.516;13.318;2022-11-15T09:54:51;27.47;;;17.57;;
22184;SDS011;11258;52.516;13.318;2022-11-15T09:57:52;23.70;;;15.87;;
22184;SDS011;11258;52.516;13.318;2022-11-15T10:05:26;25.77;;;15.97;;
22184;SDS011;11258;52.516;13.318;2022-11-15T10:10:37;23.87;;;14.33;;
22184;SDS011;11258;52.516;13.318;2022-11-15T10:13:12;27.20;;;15.33;;
22184;SDS011;11258;52.516;13.318;2022-11-15T10:15:42;26.30;;;16.83;;
22184;SDS011;11258;52.516;13.318;2022-11-15T10:18:14;21.90;;;15.13;;
22184;SDS011;11258;52.516;13.318;2022-11-15T10:20:48;24.67;;;16.23;;
22184;SDS011;11258;52.516;13.318;2022-11-15T10:23:17;19.97;;;13.73;;
22184;SDS011;11258;52.516;13.318;2022-11-15T10:25:45;21.67;;;13.90;;
22184;SDS011;11258;52.516;13.318;2022-11-15T10:28:14;25.67;;;14.90;;
22184;SDS011;11258;52.516;13.318;2022-11-15T10:30:43;21.43;;;14.03;;
22184;SDS011;11258;52.516;13.318;2022-11-15T10:33:12;23.97;;;14.57;;
22184;SDS011;11258;52.516;13.318;2022-11-15T10:35:45;26.70;;;14.63;;
22184;SDS011;11258;52.516;13.318;2022-11-15T10:38:11;26.57;;;17.77;;
22184;SDS011;11258;52.516;13.318;2022-11-15T10:40:38;22.43;;;14.67;;
22184;SDS011;11258;52.516;13.318;2022-11-15T10:43:10;27.10;;;15.40;;
22184;SDS011;11258;52.516;13.318;2022-11-15T10:45:41;24.60;;;16.13;;
22184;SDS011;11258;52.516;13.318;2022-11-15T10:50:42;24.90;;;14.93;;
22184;SDS011;11258;52.516;13.318;2022-11-15T10:55:54;18.97;;;13.90;;
22184;SDS011;11258;52.516;13.318;2022-11-15T11:01:09;21.70;;;15.23;;
22184;SDS011;11258;52.516;13.318;2022-11-15T11:03:44;21.30;;;14.33;;
22184;SDS011;11258;52.516;13.318;2022-11-15T11:06:22;21.63;;;14.43;;
22184;SDS011;11258;52.516;13.318;2022-11-15T11:08:55;23.97;;;14.87;;
22184;SDS011;11258;52.516;13.318;2022-11-15T11:11:23;22.53;;;15.50;;
22184;SDS011;11258;52.516;13.318;2022-11-15T11:13:49;19.77;;;15.43;;
22184;SDS011;11258;52.516;13.318;2022-11-15T11:22:01;23.70;;;15.53;;
22184;SDS011;11258;52.516;13.318;2022-11-15T11:33:14;23.13;;;14.82;;
22184;SDS011;11258;52.516;13.318;2022-11-15T11:49:44;20.17;;;14.95;;
22184;SDS011;11258;52.516;13.318;2022-11-15T11:58:01;21.50;;;15.02;;
22184;SDS011;11258;52.516;13.318;2022-11-15T12:00:47;25.55;;;17.08;;
22184;SDS011;11258;52.516;13.318;2022-11-15T12:03:24;22.45;;;14.30;;
22184;SDS011;11258;52.516;13.318;2022-11-15T12:06:28;24.88;;;15.80;;
22184;SDS011;11258;52.516;13.318;2022-11-15T12:09:43;20.23;;;13.48;;
22184;SDS011;11258;52.516;13.318;2022-11-15T12:15:03;18.98;;;13.75;;
22184;SDS011;11258;52.516;13.318;2022-11-15T12:17:38;18.80;;;13.77;;
22184;SDS011;11258;52.516;13.318;2022-11-15T12:20:22;22.47;;;13.73;;
22184;SDS011;11258;52.516;13.318;2022-11-15T12:23:05;17.20;;;13.02;;
22184;SDS011;11258;52.516;13.318;2022-11-15T12:25:52;16.35;;;11.82;;
22184;SDS011;11258;52.516;13.318;2022-11-15T12:30:59;20.30;;;12.55;;
22184;SDS011;11258;52.516;13.318;2022-11-15T12:33:31;16.90;;;11.77;;
22184;SDS011;11258;52.516;13.318;2022-11-15T12:36:12;16.80;;;12.20;;
22184;SDS011;11258;52.516;13.318;2022-11-15T12:41:27;17.83;;;11.97;;
22184;SDS011;11258;52.516;13.318;2022-11-15T12:43:57;15.00;;;11.85;;
22184;SDS011;11258;52.516;13.318;2022-11-15T13:04:52;20.17;;;14.43;;
22184;SDS011;11258;52.516;13.318;2022-11-15T13:10:01;23.65;;;15.43;;
22184;SDS011;11258;52.516;13.318;2022-11-15T13:12:48;22.93;;;15.27;;
22184;SDS011;11258;52.516;13.318;2022-11-15T13:15:33;19.73;;;14.85;;
22184;SDS011;11258;52.516;13.318;2022-11-15T13:21:00;21.02;;;14.77;;
22184;SDS011;11258;52.516;13.318;2022-11-15T13:23:26;20.65;;;13.65;;
22184;SDS011;11258;52.516;13.318;2022-11-15T13:26:13;20.27;;;13.48;;
22184;SDS011;11258;52.516;13.318;2022-11-15T13:28:44;20.85;;;13.95;;
22184;SDS011;11258;52.516;13.318;2022-11-15T13:33:44;25.63;;;13.98;;
22184;SDS011;11258;52.516;13.318;2022-11-15T13:36:14;19.13;;;13.90;;
22184;SDS011;11258;52.516;13.318;2022-11-15T13:38:43;21.13;;;14.77;;
22184;SDS011;11258;52.516;13.318;2022-11-15T13:43:49;21.85;;;14.68;;
22184;SDS011;11258;52.516;13.318;2022-11-15T13:46:17;19.52;;;13.40;;
22184;SDS011;11258;52.516;13.318;2022-11-15T13:48:52;23.15;;;15.07;;
22184;SDS011;11258;52.516;13.318;2022-11-15T13:53:52;23.25;;;15.02;;
22184;SDS011;11258;52.516;13.318;2022-11-15T13:56:37;23.52;;;15.32;;
22184;SDS011;11258;52.516;13.318;2022-11-15T13:59:10;23.27;;;16.13;;
22184;SDS011;11258;52.516;13.318;2022-11-15T14:01:49;22.98;;;14.70;;
22184;SDS011;11258;52.516;13.318;2022-11-15T14:04:17;25.88;;;16.42;;
22184;SDS011;11258;52.516;13.318;2022-11-15T14:06:47;24.55;;;16.85;;
22184;SDS011;11258;52.516;13.318;2022-11-15T14:09:24;24.80;;;16.45;;
22184;SDS011;11258;52.516;13.318;2022-11-15T14:12:02;25.52;;;16.50;;
22184;SDS011;11258;52.516;13.318;2022-11-15T14:14:47;23.98;;;15.73;;
22184;SDS011;11258;52.516;13.318;2022-11-15T14:17:19;21.17;;;15.80;;
22184;SDS011;11258;52.516;13.318;2022-11-15T14:19:48;26.75;;;16.10;;
22184;SDS011;11258;52.516;13.318;2022-11-15T14:27:38;23.40;;;15.98;;
22184;SDS011;11258;52.516;13.318;2022-11-15T14:30:05;24.08;;;14.95;;
22184;SDS011;11258;52.516;13.318;2022-11-15T14:32:43;22.70;;;15.88;;
22184;SDS011;11258;52.516;13.318;2022-11-15T14:35:18;24.90;;;15.27;;
22184;SDS011;11258;52.516;13.318;2022-11-15T14:37:45;25.17;;;14.43;;
22184;SDS011;11258;52.516;13.318;2022-11-15T14:40:13;21.02;;;14.80;;
22184;SDS011;11258;52.516;13.318;2022-11-15T14:42:40;25.40;;;15.20;;
22184;SDS011;11258;52.516;13.318;2022-11-15T14:45:16;20.50;;;14.05;;
22184;SDS011;11258;52.516;13.318;2022-11-15T14:47:43;22.48;;;15.20;;
22184;SDS011;11258;52.516;13.318;2022-11-15T14:50:13;23.20;;;13.48;;
22184;SDS011;11258;52.516;13.318;2022-11-15T14:52:43;19.98;;;13.70;;
22184;SDS011;11258;52.516;13.318;2022-11-15T14:57:43;20.65;;;14.32;;
22184;SDS011;11258;52.516;13.318;2022-11-15T15:00:10;23.02;;;14.13;;
22184;SDS011;11258;52.516;13.318;2022-11-15T15:02:36;21.53;;;14.20;;
22184;SDS011;11258;52.516;13.318;2022-11-15T15:05:11;19.77;;;14.33;;
22184;SDS011;11258;52.516;13.318;2022-11-15T15:07:43;22.80;;;13.97;;
22184;SDS011;11258;52.516;13.318;2022-11-15T15:10:09;21.53;;;14.80;;
22184;SDS011;11258;52.516;13.318;2022-11-15T15:12:35;21.80;;;14.80;;
22184;SDS011;11258;52.516;13.318;2022-11-15T15:15:01;21.88;;;13.60;;
22184;SDS011;11258;52.516;13.318;2022-11-15T15:17:26;20.63;;;14.30;;
22184;SDS011;11258;52.516;13.318;2022-11-15T15:19:52;20.13;;;14.50;;
22184;SDS011;11258;52.516;13.318;2022-11-15T15:22:18;21.90;;;13.90;;
22184;SDS011;11258;52.516;13.318;2022-11-15T15:24:46;22.90;;;14.90;;
22184;SDS011;11258;52.516;13.318;2022-11-15T15:27:12;19.40;;;13.73;;
22184;SDS011;11258;52.516;13.318;2022-11-15T15:29:38;19.33;;;14.00;;
22184;SDS011;11258;52.516;13.318;2022-11-15T15:32:04;19.87;;;14.10;;
22184;SDS011;11258;52.516;13.318;2022-11-15T15:34:31;22.03;;;14.90;;
22184;SDS011;11258;52.516;13.318;2022-11-15T15:37:18;23.10;;;15.47;;
22184;SDS011;11258;52.516;13.318;2022-11-15T15:39:47;21.73;;;13.83;;
22184;SDS011;11258;52.516;13.318;2022-11-15T15:42:14;20.27;;;14.27;;
22184;SDS011;11258;52.516;13.318;2022-11-15T15:44:40;21.77;;;15.03;;
22184;SDS011;11258;52.516;13.318;2022-11-15T15:47:12;20.90;;;14.93;;
22184;SDS011;11258;52.516;13.318;2022-11-15T15:49:40;26.97;;;16.67;;
22184;SDS011;11258;52.516;13.318;2022-11-15T15:52:06;21.47;;;14.47;;
22184;SDS011;11258;52.516;13.318;2022-11-15T15:54:32;19.77;;;15.57;;
22184;SDS011;11258;52.516;13.318;2022-11-15T15:56:57;24.13;;;16.07;;
22184;SDS011;11258;52.516;13.318;2022-11-15T15:59:23;21.03;;;15.53;;
22184;SDS011;11258;52.516;13.318;2022-11-15T16:01:49;23.03;;;15.50;;
22184;SDS011;11258;52.516;13.318;2022-11-15T16:04:14;24.53;;;16.37;;
22184;SDS011;11258;52.516;13.318;2022-11-15T16:06:40;26.03;;;15.97;;
22184;SDS011;11258;52.516;13.318;2022-11-15T16:09:15;23.73;;;15.67;;
22184;SDS011;11258;52.516;13.318;2022-11-15T16:11:45;22.57;;;16.20;;
22184;SDS011;11258;52.516;13.318;2022-11-15T16:14:12;23.23;;;15.97;;
22184;SDS011;11258;52.516;13.318;2022-11-15T16:16:37;23.57;;;15.93;;
22184;SDS011;11258;52.516;13.318;2022-11-15T16:19:04;25.53;;;16.33;;
22184;SDS011;11258;52.516;13.318;2022-11-15T16:21:29;23.40;;;15.47;;
22184;SDS011;11258;52.516;13.318;2022-11-15T16:23:55;23.17;;;15.10;;
22184;SDS011;11258;52.516;13.318;2022-11-15T16:26:22;24.43;;;15.60;;
22184;SDS011;11258;52.516;13.318;2022-11-15T16:28:50;23.17;;;15.67;;
22184;SDS011;11258;52.516;13.318;2022-11-15T16:31:16;25.80;;;16.50;;
22184;SDS011;11258;52.516;13.318;2022-11-15T16:33:44;21.73;;;15.43;;